sensor_id;sensor_type;location;lat;lon;timestamp;P1;durP1;ratioP1;P2;durP2;ratioP2
58238;SDS011;44037;55.638;37.356;2024-01-25T00:01:59;19.90;;;9.98;;
58238;SDS011;44037;55.638;37.356;2024-01-25T00:04:26;21.83;;;13.25;;
58238;SDS011;44037;55.638;37.356;2024-01-25T00:06:54;20.75;;;12.63;;
58238;SDS011;44037;55.638;37.356;2024-01-25T00:09:21;21.00;;;13.15;;
58238;SDS011;44037;55.638;37.356;2024-01-25T00:11:48;24.27;;;14.48;;
58238;SDS011;44037;55.638;37.356;2024-01-25T00:14:15;24.33;;;13.23;;
58238;SDS011;44037;55.638;37.356;2024-01-25T00:16:43;24.75;;;12.07;;
58238;SDS011;44037;55.638;37.356;2024-01-25T00:19:11;27.42;;;13.60;;
58238;SDS011;44037;55.638;37.356;2024-01-25T00:21:41;22.48;;;14.20;;
58238;SDS011;44037;55.638;37.356;2024-01-25T00:24:11;25.15;;;13.32;;
58238;SDS011;44037;55.638;37.356;2024-01-25T00:26:39;25.25;;;14.77;;
58238;SDS011;44037;55.638;37.356;2024-01-25T00:29:06;22.58;;;13.02;;
58238;SDS011;44037;55.638;37.356;2024-01-25T00:31:33;22.30;;;13.63;;
58238;SDS011;44037;55.638;37.356;2024-01-25T00:34:01;24.80;;;12.38;;
58238;SDS011;44037;55.638;37.356;2024-01-25T00:36:31;25.88;;;14.57;;
58238;SDS011;44037;55.638;37.356;2024-01-25T00:38:59;22.48;;;11.23;;
58238;SDS011;44037;55.638;37.356;2024-01-25T00:41:26;22.30;;;14.25;;
58238;SDS011;44037;55.638;37.356;2024-01-25T00:43:56;22.70;;;11.40;;
58238;SDS011;44037;55.638;37.356;2024-01-25T00:46:24;25.45;;;12.93;;
58238;SDS011;44037;55.638;37.356;2024-01-25T00:48:52;24.02;;;15.70;;
58238;SDS011;44037;55.638;37.356;2024-01-25T00:51:21;25.08;;;15.50;;
58238;SDS011;44037;55.638;37.356;2024-01-25T00:53:51;26.23;;;15.25;;
58238;SDS011;44037;55.638;37.356;2024-01-25T00:56:18;26.00;;;14.07;;
58238;SDS011;44037;55.638;37.356;2024-01-25T00:58:46;21.80;;;13.70;;
58238;SDS011;44037;55.638;37.356;2024-01-25T01:01:14;24.42;;;14.55;;
58238;SDS011;44037;55.638;37.356;2024-01-25T01:03:42;22.77;;;14.23;;
58238;SDS011;44037;55.638;37.356;2024-01-25T01:06:10;25.73;;;14.02;;
58238;SDS011;44037;55.638;37.356;2024-01-25T01:08:38;28.35;;;15.15;;
58238;SDS011;44037;55.638;37.356;2024-01-25T01:11:08;22.80;;;13.60;;
58238;SDS011;44037;55.638;37.356;2024-01-25T01:13:35;24.30;;;14.10;;
58238;SDS011;44037;55.638;37.356;2024-01-25T01:16:02;23.92;;;14.82;;
58238;SDS011;44037;55.638;37.356;2024-01-25T01:18:30;22.17;;;12.18;;
58238;SDS011;44037;55.638;37.356;2024-01-25T01:20:58;22.75;;;12.98;;
58238;SDS011;44037;55.638;37.356;2024-01-25T01:23:25;23.08;;;14.65;;
58238;SDS011;44037;55.638;37.356;2024-01-25T01:25:52;22.63;;;13.93;;
58238;SDS011;44037;55.638;37.356;2024-01-25T01:28:21;27.90;;;14.63;;
58238;SDS011;44037;55.638;37.356;2024-01-25T01:30:49;22.08;;;12.70;;
58238;SDS011;44037;55.638;37.356;2024-01-25T01:33:16;19.75;;;12.55;;
58238;SDS011;44037;55.638;37.356;2024-01-25T01:35:43;24.05;;;12.98;;
58238;SDS011;44037;55.638;37.356;2024-01-25T01:38:11;20.33;;;12.77;;
58238;SDS011;44037;55.638;37.356;2024-01-25T01:40:39;20.42;;;12.23;;
58238;SDS011;44037;55.638;37.356;2024-01-25T01:43:06;21.92;;;12.30;;
58238;SDS011;44037;55.638;37.356;2024-01-25T01:45:35;19.23;;;11.98;;
58238;SDS011;44037;55.638;37.356;2024-01-25T01:48:02;20.70;;;11.88;;
58238;SDS011;44037;55.638;37.356;2024-01-25T01:50:32;16.85;;;10.70;;
58238;SDS011;44037;55.638;37.356;2024-01-25T01:52:59;16.80;;;10.40;;
58238;SDS011;44037;55.638;37.356;2024-01-25T01:55:27;19.30;;;11.35;;
58238;SDS011;44037;55.638;37.356;2024-01-25T01:57:54;18.10;;;11.50;;
58238;SDS011;44037;55.638;37.356;2024-01-25T02:00:22;15.20;;;10.18;;
58238;SDS011;44037;55.638;37.356;2024-01-25T02:02:52;19.90;;;11.32;;
58238;SDS011;44037;55.638;37.356;2024-01-25T02:05:20;20.33;;;11.75;;
58238;SDS011;44037;55.638;37.356;2024-01-25T02:07:47;17.45;;;10.48;;
58238;SDS011;44037;55.638;37.356;2024-01-25T02:10:14;18.27;;;11.05;;
58238;SDS011;44037;55.638;37.356;2024-01-25T02:12:42;16.35;;;10.10;;
58238;SDS011;44037;55.638;37.356;2024-01-25T02:15:09;19.02;;;10.95;;
58238;SDS011;44037;55.638;37.356;2024-01-25T02:17:37;15.48;;;10.02;;
58238;SDS011;44037;55.638;37.356;2024-01-25T02:20:07;16.45;;;9.77;;
58238;SDS011;44037;55.638;37.356;2024-01-25T02:22:37;16.60;;;10.27;;
58238;SDS011;44037;55.638;37.356;2024-01-25T02:25:04;18.58;;;11.07;;
58238;SDS011;44037;55.638;37.356;2024-01-25T02:27:32;16.50;;;10.38;;
58238;SDS011;44037;55.638;37.356;2024-01-25T02:30:04;16.80;;;10.20;;
58238;SDS011;44037;55.638;37.356;2024-01-25T02:32:34;14.48;;;9.18;;
58238;SDS011;44037;55.638;37.356;2024-01-25T02:35:01;19.77;;;10.05;;
58238;SDS011;44037;55.638;37.356;2024-01-25T02:37:30;15.25;;;9.63;;
58238;SDS011;44037;55.638;37.356;2024-01-25T02:39:59;17.35;;;10.55;;
58238;SDS011;44037;55.638;37.356;2024-01-25T02:42:26;17.20;;;9.23;;
58238;SDS011;44037;55.638;37.356;2024-01-25T02:44:53;17.70;;;9.98;;
58238;SDS011;44037;55.638;37.356;2024-01-25T02:47:21;17.33;;;10.25;;
58238;SDS011;44037;55.638;37.356;2024-01-25T02:49:48;14.98;;;9.32;;
58238;SDS011;44037;55.638;37.356;2024-01-25T02:52:15;22.02;;;11.43;;
58238;SDS011;44037;55.638;37.356;2024-01-25T02:54:43;19.92;;;10.82;;
58238;SDS011;44037;55.638;37.356;2024-01-25T02:57:11;19.83;;;10.85;;
58238;SDS011;44037;55.638;37.356;2024-01-25T02:59:39;19.65;;;11.10;;
58238;SDS011;44037;55.638;37.356;2024-01-25T03:02:06;19.95;;;10.55;;
58238;SDS011;44037;55.638;37.356;2024-01-25T03:04:34;20.75;;;12.50;;
58238;SDS011;44037;55.638;37.356;2024-01-25T03:07:01;25.15;;;12.00;;
58238;SDS011;44037;55.638;37.356;2024-01-25T03:09:28;19.85;;;12.23;;
58238;SDS011;44037;55.638;37.356;2024-01-25T03:11:56;20.90;;;12.07;;
58238;SDS011;44037;55.638;37.356;2024-01-25T03:14:25;21.00;;;11.35;;
58238;SDS011;44037;55.638;37.356;2024-01-25T03:16:52;23.92;;;12.20;;
58238;SDS011;44037;55.638;37.356;2024-01-25T03:19:19;23.17;;;13.50;;
58238;SDS011;44037;55.638;37.356;2024-01-25T03:21:46;22.42;;;13.88;;
58238;SDS011;44037;55.638;37.356;2024-01-25T03:24:14;22.70;;;14.07;;
58238;SDS011;44037;55.638;37.356;2024-01-25T03:26:41;22.42;;;12.65;;
58238;SDS011;44037;55.638;37.356;2024-01-25T03:29:08;18.00;;;12.07;;
58238;SDS011;44037;55.638;37.356;2024-01-25T03:31:37;21.60;;;12.38;;
58238;SDS011;44037;55.638;37.356;2024-01-25T03:34:04;18.25;;;8.98;;
58238;SDS011;44037;55.638;37.356;2024-01-25T03:36:32;20.30;;;12.05;;
58238;SDS011;44037;55.638;37.356;2024-01-25T03:39:00;22.15;;;12.02;;
58238;SDS011;44037;55.638;37.356;2024-01-25T03:41:28;19.70;;;11.73;;
58238;SDS011;44037;55.638;37.356;2024-01-25T03:43:55;19.65;;;11.95;;
58238;SDS011;44037;55.638;37.356;2024-01-25T03:46:23;19.63;;;11.25;;
58238;SDS011;44037;55.638;37.356;2024-01-25T03:48:51;18.17;;;8.77;;
58238;SDS011;44037;55.638;37.356;2024-01-25T03:51:20;18.88;;;11.52;;
58238;SDS011;44037;55.638;37.356;2024-01-25T03:53:49;18.40;;;10.43;;
58238;SDS011;44037;55.638;37.356;2024-01-25T03:56:18;18.35;;;9.80;;
58238;SDS011;44037;55.638;37.356;2024-01-25T03:58:45;15.20;;;9.07;;
58238;SDS011;44037;55.638;37.356;2024-01-25T04:01:13;16.77;;;10.05;;
58238;SDS011;44037;55.638;37.356;2024-01-25T04:03:40;16.92;;;10.73;;
58238;SDS011;44037;55.638;37.356;2024-01-25T04:06:09;16.00;;;9.70;;
58238;SDS011;44037;55.638;37.356;2024-01-25T04:08:36;14.88;;;10.32;;
58238;SDS011;44037;55.638;37.356;2024-01-25T04:11:04;17.60;;;10.40;;
58238;SDS011;44037;55.638;37.356;2024-01-25T04:13:31;22.13;;;12.43;;
58238;SDS011;44037;55.638;37.356;2024-01-25T04:15:58;22.60;;;12.60;;
58238;SDS011;44037;55.638;37.356;2024-01-25T04:18:26;21.02;;;9.35;;
58238;SDS011;44037;55.638;37.356;2024-01-25T04:20:53;23.65;;;12.18;;
58238;SDS011;44037;55.638;37.356;2024-01-25T04:23:22;25.58;;;14.07;;
58238;SDS011;44037;55.638;37.356;2024-01-25T04:25:49;16.50;;;10.10;;
58238;SDS011;44037;55.638;37.356;2024-01-25T04:28:17;17.90;;;10.32;;
58238;SDS011;44037;55.638;37.356;2024-01-25T04:30:44;14.68;;;9.27;;
58238;SDS011;44037;55.638;37.356;2024-01-25T04:33:12;15.07;;;8.98;;
58238;SDS011;44037;55.638;37.356;2024-01-25T04:35:39;15.15;;;9.32;;
58238;SDS011;44037;55.638;37.356;2024-01-25T04:38:07;16.52;;;10.23;;
58238;SDS011;44037;55.638;37.356;2024-01-25T04:40:35;15.05;;;9.60;;
58238;SDS011;44037;55.638;37.356;2024-01-25T04:43:03;16.15;;;9.43;;
58238;SDS011;44037;55.638;37.356;2024-01-25T04:45:30;14.52;;;9.95;;
58238;SDS011;44037;55.638;37.356;2024-01-25T04:47:58;17.33;;;9.55;;
58238;SDS011;44037;55.638;37.356;2024-01-25T04:50:25;18.95;;;11.63;;
58238;SDS011;44037;55.638;37.356;2024-01-25T04:52:52;17.10;;;10.65;;
58238;SDS011;44037;55.638;37.356;2024-01-25T04:55:20;15.77;;;10.82;;
58238;SDS011;44037;55.638;37.356;2024-01-25T04:57:49;19.73;;;11.30;;
58238;SDS011;44037;55.638;37.356;2024-01-25T05:00:18;19.52;;;10.60;;
58238;SDS011;44037;55.638;37.356;2024-01-25T05:02:47;16.23;;;9.90;;
58238;SDS011;44037;55.638;37.356;2024-01-25T05:05:14;15.27;;;10.13;;
58238;SDS011;44037;55.638;37.356;2024-01-25T05:07:42;13.82;;;9.15;;
58238;SDS011;44037;55.638;37.356;2024-01-25T05:10:09;14.68;;;7.60;;
58238;SDS011;44037;55.638;37.356;2024-01-25T05:12:37;15.10;;;9.43;;
58238;SDS011;44037;55.638;37.356;2024-01-25T05:15:06;14.75;;;10.07;;
58238;SDS011;44037;55.638;37.356;2024-01-25T05:17:34;16.67;;;9.57;;
58238;SDS011;44037;55.638;37.356;2024-01-25T05:20:02;15.07;;;9.77;;
58238;SDS011;44037;55.638;37.356;2024-01-25T05:22:30;14.55;;;10.13;;
58238;SDS011;44037;55.638;37.356;2024-01-25T05:24:57;14.25;;;8.82;;
58238;SDS011;44037;55.638;37.356;2024-01-25T05:27:24;12.45;;;7.90;;
58238;SDS011;44037;55.638;37.356;2024-01-25T05:29:52;12.32;;;8.00;;
58238;SDS011;44037;55.638;37.356;2024-01-25T05:32:21;13.70;;;9.38;;
58238;SDS011;44037;55.638;37.356;2024-01-25T05:34:48;12.32;;;8.55;;
58238;SDS011;44037;55.638;37.356;2024-01-25T05:37:15;13.98;;;10.23;;
58238;SDS011;44037;55.638;37.356;2024-01-25T05:39:43;14.30;;;9.45;;
58238;SDS011;44037;55.638;37.356;2024-01-25T05:42:11;13.00;;;8.50;;
58238;SDS011;44037;55.638;37.356;2024-01-25T05:44:38;14.50;;;8.52;;
58238;SDS011;44037;55.638;37.356;2024-01-25T05:47:05;14.10;;;9.18;;
58238;SDS011;44037;55.638;37.356;2024-01-25T05:49:34;13.10;;;9.38;;
58238;SDS011;44037;55.638;37.356;2024-01-25T05:52:02;14.82;;;8.88;;
58238;SDS011;44037;55.638;37.356;2024-01-25T05:54:32;12.48;;;8.50;;
58238;SDS011;44037;55.638;37.356;2024-01-25T05:57:00;14.98;;;10.45;;
58238;SDS011;44037;55.638;37.356;2024-01-25T05:59:27;14.38;;;9.25;;
58238;SDS011;44037;55.638;37.356;2024-01-25T06:01:55;15.55;;;10.50;;
58238;SDS011;44037;55.638;37.356;2024-01-25T06:04:22;16.90;;;10.02;;
58238;SDS011;44037;55.638;37.356;2024-01-25T06:06:51;13.30;;;9.15;;
58238;SDS011;44037;55.638;37.356;2024-01-25T06:09:18;18.10;;;9.73;;
58238;SDS011;44037;55.638;37.356;2024-01-25T06:11:46;14.68;;;9.82;;
58238;SDS011;44037;55.638;37.356;2024-01-25T06:14:13;15.50;;;9.18;;
58238;SDS011;44037;55.638;37.356;2024-01-25T06:16:40;14.77;;;9.32;;
58238;SDS011;44037;55.638;37.356;2024-01-25T06:19:08;15.45;;;10.02;;
58238;SDS011;44037;55.638;37.356;2024-01-25T06:21:36;16.45;;;10.23;;
58238;SDS011;44037;55.638;37.356;2024-01-25T06:24:05;16.27;;;9.40;;
58238;SDS011;44037;55.638;37.356;2024-01-25T06:26:33;16.75;;;9.95;;
58238;SDS011;44037;55.638;37.356;2024-01-25T06:29:00;13.65;;;9.45;;
58238;SDS011;44037;55.638;37.356;2024-01-25T06:31:27;17.67;;;9.52;;
58238;SDS011;44037;55.638;37.356;2024-01-25T06:33:55;16.95;;;9.50;;
58238;SDS011;44037;55.638;37.356;2024-01-25T06:36:22;14.23;;;8.60;;
58238;SDS011;44037;55.638;37.356;2024-01-25T06:38:50;16.67;;;9.95;;
58238;SDS011;44037;55.638;37.356;2024-01-25T06:41:18;16.42;;;10.13;;
58238;SDS011;44037;55.638;37.356;2024-01-25T06:43:46;19.60;;;13.48;;
58238;SDS011;44037;55.638;37.356;2024-01-25T06:46:13;15.90;;;10.43;;
58238;SDS011;44037;55.638;37.356;2024-01-25T06:48:41;19.00;;;11.18;;
58238;SDS011;44037;55.638;37.356;2024-01-25T06:51:08;14.98;;;10.48;;
58238;SDS011;44037;55.638;37.356;2024-01-25T06:53:36;16.70;;;10.00;;
58238;SDS011;44037;55.638;37.356;2024-01-25T06:56:03;14.85;;;9.63;;
58238;SDS011;44037;55.638;37.356;2024-01-25T06:58:33;13.93;;;9.23;;
58238;SDS011;44037;55.638;37.356;2024-01-25T07:01:01;16.77;;;8.75;;
58238;SDS011;44037;55.638;37.356;2024-01-25T07:03:30;17.58;;;10.98;;
58238;SDS011;44037;55.638;37.356;2024-01-25T07:05:57;16.50;;;10.35;;
58238;SDS011;44037;55.638;37.356;2024-01-25T07:08:24;14.93;;;10.82;;
58238;SDS011;44037;55.638;37.356;2024-01-25T07:10:52;15.00;;;10.60;;
58238;SDS011;44037;55.638;37.356;2024-01-25T07:13:21;17.17;;;11.25;;
58238;SDS011;44037;55.638;37.356;2024-01-25T07:15:50;16.92;;;10.63;;
58238;SDS011;44037;55.638;37.356;2024-01-25T07:18:17;17.58;;;11.18;;
58238;SDS011;44037;55.638;37.356;2024-01-25T07:20:45;18.88;;;11.98;;
58238;SDS011;44037;55.638;37.356;2024-01-25T07:23:13;16.60;;;11.02;;
58238;SDS011;44037;55.638;37.356;2024-01-25T07:25:40;21.02;;;11.45;;
58238;SDS011;44037;55.638;37.356;2024-01-25T07:28:07;17.77;;;10.68;;
58238;SDS011;44037;55.638;37.356;2024-01-25T07:30:35;19.35;;;9.93;;
58238;SDS011;44037;55.638;37.356;2024-01-25T07:33:04;17.98;;;10.57;;
58238;SDS011;44037;55.638;37.356;2024-01-25T07:35:34;17.05;;;10.32;;
58238;SDS011;44037;55.638;37.356;2024-01-25T07:38:02;16.67;;;10.82;;
58238;SDS011;44037;55.638;37.356;2024-01-25T07:40:31;17.42;;;8.88;;
58238;SDS011;44037;55.638;37.356;2024-01-25T07:42:58;15.43;;;10.00;;
58238;SDS011;44037;55.638;37.356;2024-01-25T07:45:25;15.25;;;10.20;;
58238;SDS011;44037;55.638;37.356;2024-01-25T07:47:53;16.60;;;11.07;;
58238;SDS011;44037;55.638;37.356;2024-01-25T07:50:21;16.13;;;9.52;;
58238;SDS011;44037;55.638;37.356;2024-01-25T07:52:49;16.65;;;10.55;;
58238;SDS011;44037;55.638;37.356;2024-01-25T07:55:19;15.70;;;9.25;;
58238;SDS011;44037;55.638;37.356;2024-01-25T07:57:53;15.88;;;10.30;;
58238;SDS011;44037;55.638;37.356;2024-01-25T08:00:20;15.77;;;10.55;;
58238;SDS011;44037;55.638;37.356;2024-01-25T08:02:48;14.93;;;9.90;;
58238;SDS011;44037;55.638;37.356;2024-01-25T08:05:15;16.63;;;10.95;;
58238;SDS011;44037;55.638;37.356;2024-01-25T08:07:45;14.27;;;9.93;;
58238;SDS011;44037;55.638;37.356;2024-01-25T08:10:14;14.13;;;10.00;;
58238;SDS011;44037;55.638;37.356;2024-01-25T08:12:44;15.93;;;9.82;;
58238;SDS011;44037;55.638;37.356;2024-01-25T08:15:13;14.15;;;9.27;;
58238;SDS011;44037;55.638;37.356;2024-01-25T08:17:41;14.98;;;9.52;;
58238;SDS011;44037;55.638;37.356;2024-01-25T08:20:09;14.48;;;9.88;;
58238;SDS011;44037;55.638;37.356;2024-01-25T08:22:38;17.52;;;11.98;;
58238;SDS011;44037;55.638;37.356;2024-01-25T08:25:09;16.25;;;10.68;;
58238;SDS011;44037;55.638;37.356;2024-01-25T08:27:39;16.70;;;10.45;;
58238;SDS011;44037;55.638;37.356;2024-01-25T08:30:07;15.48;;;10.43;;
58238;SDS011;44037;55.638;37.356;2024-01-25T08:32:35;12.85;;;7.47;;
58238;SDS011;44037;55.638;37.356;2024-01-25T08:35:03;14.25;;;9.00;;
58238;SDS011;44037;55.638;37.356;2024-01-25T08:37:31;17.33;;;11.52;;
58238;SDS011;44037;55.638;37.356;2024-01-25T08:39:58;17.92;;;10.45;;
58238;SDS011;44037;55.638;37.356;2024-01-25T08:42:27;17.00;;;11.05;;
58238;SDS011;44037;55.638;37.356;2024-01-25T08:44:54;15.30;;;10.30;;
58238;SDS011;44037;55.638;37.356;2024-01-25T08:47:21;15.63;;;10.15;;
58238;SDS011;44037;55.638;37.356;2024-01-25T08:49:49;17.95;;;10.55;;
58238;SDS011;44037;55.638;37.356;2024-01-25T08:52:16;14.80;;;8.65;;
58238;SDS011;44037;55.638;37.356;2024-01-25T08:54:44;14.85;;;8.75;;
58238;SDS011;44037;55.638;37.356;2024-01-25T08:57:11;13.68;;;9.90;;
58238;SDS011;44037;55.638;37.356;2024-01-25T08:59:41;13.90;;;10.15;;
58238;SDS011;44037;55.638;37.356;2024-01-25T09:02:09;16.10;;;9.65;;
58238;SDS011;44037;55.638;37.356;2024-01-25T09:04:36;15.93;;;11.30;;
58238;SDS011;44037;55.638;37.356;2024-01-25T09:07:05;17.45;;;11.27;;
58238;SDS011;44037;55.638;37.356;2024-01-25T09:09:33;15.77;;;10.25;;
58238;SDS011;44037;55.638;37.356;2024-01-25T09:12:00;13.45;;;9.68;;
58238;SDS011;44037;55.638;37.356;2024-01-25T09:14:28;15.43;;;10.30;;
58238;SDS011;44037;55.638;37.356;2024-01-25T09:16:59;14.10;;;9.93;;
58238;SDS011;44037;55.638;37.356;2024-01-25T09:19:26;14.55;;;9.43;;
58238;SDS011;44037;55.638;37.356;2024-01-25T09:21:53;18.83;;;11.00;;
58238;SDS011;44037;55.638;37.356;2024-01-25T09:24:22;16.02;;;10.05;;
58238;SDS011;44037;55.638;37.356;2024-01-25T09:26:49;15.57;;;8.10;;
58238;SDS011;44037;55.638;37.356;2024-01-25T09:29:17;13.68;;;7.63;;
58238;SDS011;44037;55.638;37.356;2024-01-25T09:31:44;13.00;;;7.00;;
58238;SDS011;44037;55.638;37.356;2024-01-25T09:34:13;14.48;;;9.63;;
58238;SDS011;44037;55.638;37.356;2024-01-25T09:36:40;14.88;;;10.57;;
58238;SDS011;44037;55.638;37.356;2024-01-25T09:39:08;10.57;;;7.30;;
58238;SDS011;44037;55.638;37.356;2024-01-25T09:41:35;15.27;;;7.75;;
58238;SDS011;44037;55.638;37.356;2024-01-25T09:44:03;11.93;;;6.95;;
58238;SDS011;44037;55.638;37.356;2024-01-25T09:46:30;15.95;;;10.25;;
58238;SDS011;44037;55.638;37.356;2024-01-25T09:48:58;13.80;;;9.15;;
58238;SDS011;44037;55.638;37.356;2024-01-25T09:51:27;19.05;;;7.47;;
58238;SDS011;44037;55.638;37.356;2024-01-25T09:53:59;14.48;;;9.93;;
58238;SDS011;44037;55.638;37.356;2024-01-25T09:56:28;14.45;;;8.98;;
58238;SDS011;44037;55.638;37.356;2024-01-25T09:58:58;13.95;;;9.80;;
58238;SDS011;44037;55.638;37.356;2024-01-25T10:01:26;14.15;;;10.20;;
58238;SDS011;44037;55.638;37.356;2024-01-25T10:03:54;13.70;;;9.73;;
58238;SDS011;44037;55.638;37.356;2024-01-25T10:06:22;16.23;;;9.85;;
58238;SDS011;44037;55.638;37.356;2024-01-25T10:08:52;14.90;;;9.88;;
58238;SDS011;44037;55.638;37.356;2024-01-25T10:11:20;14.02;;;8.88;;
58238;SDS011;44037;55.638;37.356;2024-01-25T10:13:47;14.93;;;9.25;;
58238;SDS011;44037;55.638;37.356;2024-01-25T10:16:17;13.38;;;8.23;;
58238;SDS011;44037;55.638;37.356;2024-01-25T10:18:45;13.45;;;9.50;;
58238;SDS011;44037;55.638;37.356;2024-01-25T10:21:14;15.82;;;8.93;;
58238;SDS011;44037;55.638;37.356;2024-01-25T10:23:43;15.40;;;9.40;;
58238;SDS011;44037;55.638;37.356;2024-01-25T10:26:13;17.48;;;9.85;;
58238;SDS011;44037;55.638;37.356;2024-01-25T10:28:41;17.88;;;10.23;;
58238;SDS011;44037;55.638;37.356;2024-01-25T10:31:08;16.17;;;9.80;;
58238;SDS011;44037;55.638;37.356;2024-01-25T10:33:36;12.15;;;8.90;;
58238;SDS011;44037;55.638;37.356;2024-01-25T10:36:06;14.23;;;9.75;;
58238;SDS011;44037;55.638;37.356;2024-01-25T10:38:35;11.18;;;8.65;;
58238;SDS011;44037;55.638;37.356;2024-01-25T10:41:04;14.43;;;8.07;;
58238;SDS011;44037;55.638;37.356;2024-01-25T10:43:33;14.95;;;9.20;;
58238;SDS011;44037;55.638;37.356;2024-01-25T10:46:01;19.15;;;14.43;;
58238;SDS011;44037;55.638;37.356;2024-01-25T10:48:29;14.88;;;10.48;;
58238;SDS011;44037;55.638;37.356;2024-01-25T10:50:57;16.60;;;11.35;;
58238;SDS011;44037;55.638;37.356;2024-01-25T10:53:28;14.05;;;8.73;;
58238;SDS011;44037;55.638;37.356;2024-01-25T10:55:57;17.05;;;11.02;;
58238;SDS011;44037;55.638;37.356;2024-01-25T10:58:29;13.30;;;9.85;;
58238;SDS011;44037;55.638;37.356;2024-01-25T11:00:59;14.60;;;9.82;;
58238;SDS011;44037;55.638;37.356;2024-01-25T11:03:26;13.57;;;9.75;;
58238;SDS011;44037;55.638;37.356;2024-01-25T11:05:54;16.27;;;11.27;;
58238;SDS011;44037;55.638;37.356;2024-01-25T11:08:23;15.52;;;10.45;;
58238;SDS011;44037;55.638;37.356;2024-01-25T11:10:51;16.20;;;10.13;;
58238;SDS011;44037;55.638;37.356;2024-01-25T11:13:23;16.83;;;10.90;;
58238;SDS011;44037;55.638;37.356;2024-01-25T11:15:51;14.80;;;10.27;;
58238;SDS011;44037;55.638;37.356;2024-01-25T11:18:20;14.50;;;10.35;;
58238;SDS011;44037;55.638;37.356;2024-01-25T11:20:51;17.88;;;10.40;;
58238;SDS011;44037;55.638;37.356;2024-01-25T11:23:18;16.70;;;10.65;;
58238;SDS011;44037;55.638;37.356;2024-01-25T11:25:47;16.83;;;10.63;;
58238;SDS011;44037;55.638;37.356;2024-01-25T11:28:14;13.93;;;8.07;;
58238;SDS011;44037;55.638;37.356;2024-01-25T11:30:42;15.13;;;8.68;;
58238;SDS011;44037;55.638;37.356;2024-01-25T11:33:10;18.38;;;10.27;;
58238;SDS011;44037;55.638;37.356;2024-01-25T11:35:41;14.00;;;9.07;;
58238;SDS011;44037;55.638;37.356;2024-01-25T11:38:08;16.92;;;9.93;;
58238;SDS011;44037;55.638;37.356;2024-01-25T11:40:36;17.05;;;9.93;;
58238;SDS011;44037;55.638;37.356;2024-01-25T11:43:04;14.65;;;9.63;;
58238;SDS011;44037;55.638;37.356;2024-01-25T11:45:36;15.00;;;10.27;;
58238;SDS011;44037;55.638;37.356;2024-01-25T11:48:08;16.25;;;9.90;;
58238;SDS011;44037;55.638;37.356;2024-01-25T11:50:35;15.05;;;10.57;;
58238;SDS011;44037;55.638;37.356;2024-01-25T11:53:04;14.00;;;10.07;;
58238;SDS011;44037;55.638;37.356;2024-01-25T11:55:32;17.70;;;9.77;;
58238;SDS011;44037;55.638;37.356;2024-01-25T11:57:59;15.75;;;10.20;;
58238;SDS011;44037;55.638;37.356;2024-01-25T12:00:26;30.27;;;20.63;;
58238;SDS011;44037;55.638;37.356;2024-01-25T12:02:54;16.15;;;10.48;;
58238;SDS011;44037;55.638;37.356;2024-01-25T12:05:22;15.77;;;10.95;;
58238;SDS011;44037;55.638;37.356;2024-01-25T12:07:49;18.65;;;11.40;;
58238;SDS011;44037;55.638;37.356;2024-01-25T12:10:18;17.75;;;11.57;;
58238;SDS011;44037;55.638;37.356;2024-01-25T12:12:45;16.77;;;11.73;;
58238;SDS011;44037;55.638;37.356;2024-01-25T12:15:15;16.35;;;11.25;;
58238;SDS011;44037;55.638;37.356;2024-01-25T12:17:42;17.85;;;10.85;;
58238;SDS011;44037;55.638;37.356;2024-01-25T12:20:11;15.68;;;10.85;;
58238;SDS011;44037;55.638;37.356;2024-01-25T12:22:38;20.70;;;11.52;;
58238;SDS011;44037;55.638;37.356;2024-01-25T12:25:06;17.85;;;10.57;;
58238;SDS011;44037;55.638;37.356;2024-01-25T12:27:36;18.08;;;10.82;;
58238;SDS011;44037;55.638;37.356;2024-01-25T12:30:07;18.30;;;11.35;;
58238;SDS011;44037;55.638;37.356;2024-01-25T12:32:35;20.50;;;10.73;;
58238;SDS011;44037;55.638;37.356;2024-01-25T12:35:03;16.00;;;10.07;;
58238;SDS011;44037;55.638;37.356;2024-01-25T12:37:32;15.18;;;9.38;;
58238;SDS011;44037;55.638;37.356;2024-01-25T12:40:00;19.35;;;9.43;;
58238;SDS011;44037;55.638;37.356;2024-01-25T12:42:28;18.40;;;10.68;;
58238;SDS011;44037;55.638;37.356;2024-01-25T12:44:57;15.98;;;9.48;;
58238;SDS011;44037;55.638;37.356;2024-01-25T12:47:24;16.83;;;9.48;;
58238;SDS011;44037;55.638;37.356;2024-01-25T12:49:52;22.67;;;12.63;;
58238;SDS011;44037;55.638;37.356;2024-01-25T12:52:20;16.70;;;11.63;;
58238;SDS011;44037;55.638;37.356;2024-01-25T12:54:47;21.17;;;10.10;;
58238;SDS011;44037;55.638;37.356;2024-01-25T12:57:14;17.38;;;10.63;;
58238;SDS011;44037;55.638;37.356;2024-01-25T12:59:44;17.00;;;10.98;;
58238;SDS011;44037;55.638;37.356;2024-01-25T13:02:14;17.45;;;11.73;;
58238;SDS011;44037;55.638;37.356;2024-01-25T13:04:42;18.73;;;12.18;;
58238;SDS011;44037;55.638;37.356;2024-01-25T13:07:09;16.92;;;10.93;;
58238;SDS011;44037;55.638;37.356;2024-01-25T13:09:37;18.05;;;11.45;;
58238;SDS011;44037;55.638;37.356;2024-01-25T13:12:04;18.13;;;11.15;;
58238;SDS011;44037;55.638;37.356;2024-01-25T13:14:32;22.50;;;10.65;;
58238;SDS011;44037;55.638;37.356;2024-01-25T13:17:00;22.33;;;10.77;;
58238;SDS011;44037;55.638;37.356;2024-01-25T13:19:29;17.25;;;10.77;;
58238;SDS011;44037;55.638;37.356;2024-01-25T13:21:56;18.88;;;10.50;;
58238;SDS011;44037;55.638;37.356;2024-01-25T13:24:24;17.17;;;9.95;;
58238;SDS011;44037;55.638;37.356;2024-01-25T13:26:51;19.05;;;11.77;;
58238;SDS011;44037;55.638;37.356;2024-01-25T13:29:18;16.92;;;10.48;;
58238;SDS011;44037;55.638;37.356;2024-01-25T13:31:46;19.25;;;11.25;;
58238;SDS011;44037;55.638;37.356;2024-01-25T13:34:14;15.15;;;10.68;;
58238;SDS011;44037;55.638;37.356;2024-01-25T13:36:42;20.60;;;11.48;;
58238;SDS011;44037;55.638;37.356;2024-01-25T13:39:10;15.88;;;10.60;;
58238;SDS011;44037;55.638;37.356;2024-01-25T13:41:37;16.85;;;10.23;;
58238;SDS011;44037;55.638;37.356;2024-01-25T13:44:04;17.55;;;11.30;;
58238;SDS011;44037;55.638;37.356;2024-01-25T13:46:32;18.08;;;11.00;;
58238;SDS011;44037;55.638;37.356;2024-01-25T13:48:59;20.52;;;12.10;;
58238;SDS011;44037;55.638;37.356;2024-01-25T13:51:27;19.23;;;10.95;;
58238;SDS011;44037;55.638;37.356;2024-01-25T13:53:55;18.50;;;12.48;;
58238;SDS011;44037;55.638;37.356;2024-01-25T13:56:23;21.95;;;12.40;;
58238;SDS011;44037;55.638;37.356;2024-01-25T13:58:51;20.50;;;11.85;;
58238;SDS011;44037;55.638;37.356;2024-01-25T14:01:19;21.70;;;13.48;;
58238;SDS011;44037;55.638;37.356;2024-01-25T14:03:47;19.63;;;11.45;;
58238;SDS011;44037;55.638;37.356;2024-01-25T14:06:14;19.42;;;12.52;;
58238;SDS011;44037;55.638;37.356;2024-01-25T14:08:41;20.08;;;12.40;;
58238;SDS011;44037;55.638;37.356;2024-01-25T14:11:10;22.98;;;13.55;;
58238;SDS011;44037;55.638;37.356;2024-01-25T14:13:38;25.92;;;13.50;;
58238;SDS011;44037;55.638;37.356;2024-01-25T14:16:05;23.73;;;14.60;;
58238;SDS011;44037;55.638;37.356;2024-01-25T14:18:36;23.20;;;14.57;;